• Join FlightAware (Why Join?)
  • Login
  • US Flag 
07:37PM EDT


 

Airport Tracker/Info


-or-


 

Live Flight TrackerFlight Track Log ✈ EJA863 ✈ 24-Aug-2008 ✈ KILG - KAVP

Flight Track Log - Related Links

Times and Time Zones

All times are in EDT time to prevent confusion due to time zone crossing. See the EJA863 flight status page for this flight to view local times or setup timezone preferences in your user account.

Time Position Orientation Groundspeed Altitude Reporting Facility
EDT Latitude Longitude Course Direction KTS MPH feet Rate Location/Type
08:17AM 39.6833 -75.6167 247° West 159 183 500  Level Philadelphia TRACON
08:18AM 39.6667 -75.6667 297° West 191 220 2,900 2,760 Climbing Philadelphia TRACON
08:18AM 39.6675 -75.6739 299° West 17,000 2,580 Climbing New York Center
08:19AM 39.6942 -75.7378 39° Northeast 271 312 5,500 -5,640 Descending New York Center
08:20AM 39.7464 -75.6822 50° Northeast 282 325 6,100 1,440 Climbing New York Center
08:21AM 39.8000 -75.6000 198° South 266 306 8,400 2,160 Climbing Philadelphia TRACON
08:21AM 39.7956 -75.6019 36° Northeast 268 308 8,300 2,640 Descending New York Center
08:22AM 39.8542 -75.5464 North 284 327 11,100 1,800 Climbing New York Center
08:23AM 39.9419 -75.5414 356° North 290 334 12,000 840 Climbing New York Center
08:24AM 40.0417 -75.5511 356° North 343 395 12,900 480 Climbing New York Center
08:25AM 40.1433 -75.5608 342° North 362 417 13,000  Climbing New York Center
08:26AM 40.2397 -75.6028 326° Northwest 363 418 13,000  Level New York Center
08:27AM 40.3219 -75.6767 328° Northwest 361 415 13,000 -180 Level New York Center
08:28AM 40.4108 -75.7483 342° North 372 428 12,700 -960 Descending New York Center
08:29AM 40.5131 -75.7911 North 382 440 11,200 -900 Descending New York Center
08:30AM 40.6031 -75.7869 North 366 421 11,000 -1,140 Descending New York Center
08:31AM 40.7014 -75.7750 North 359 413 9,000  Descending New York Center
08:32AM 40.7933 -75.7706 North 345 397 11,000 1,020 Climbing New York Center
08:33AM 40.8919 -75.7531 230° Southwest 345 397 11,000  Level New York Center
08:33AM 40.8853 -75.7636 North 332 382 11,000  Level New York Center
08:34AM 40.9753 -75.7539 North 332 382 11,000 -600 Level New York Center
08:35AM 41.0633 -75.7383 23° Northeast 326 375 9,800 -1,500 Descending New York Center
08:36AM 41.1361 -75.6967 21° North 302 348 8,100 -1,920 Descending New York Center
08:37AM 41.2125 -75.6581 20° North 279 321 6,100 -1,260 Descending New York Center
08:38AM 41.2783 -75.6269 33° Northeast 269 310 5,600 -1,080 Descending New York Center
08:39AM 41.3411 -75.5736 30° Northeast 262 302 4,000 -840 Descending New York Center
08:40AM 41.4075 -75.5231 357° North 262 302 4,000  Level New York Center
08:41AM 41.4700 -75.5275 88° East 235 270 4,000  Level New York Center
08:41AM 41.4703 -75.5164 285° West 262 302 4,000  Level New York Center
08:42AM 41.4825 -75.5781 225° Southwest 150 173 4,000 -360 Level New York Center
08:43AM 41.4472 -75.6256 216° Southwest 114 131 3,400 -780 Descending New York Center
08:44AM 41.4125 -75.6589 215° Southwest 131 151 2,500 -900 Descending New York Center
08:45AM 41.3800 -75.6897 215° Southwest 122 140 1,700 -840 Descending New York Center